Time;durP1;ratioP1;P1;durP2;ratioP2;P2;SDS_P1;SDS_P2;PMS_P1;PMS_P2;Temp;Humidity;BMP_temperature;BMP_pressure;BME280_temperature;BME280_humidity;BME280_pressure;Samples;Min_cycle;Max_cycle;Signal;HPM_P1;HPM_P2
2021/12/21 00:00:40;;;;;;;14.07;7.80;;;;;;;;;;4945262;29;20099;-85
2021/12/21 00:03:15;;;;;;;14.35;8.00;;;;;;;;;;4946181;28;20484;-85
2021/12/21 00:05:41;;;;;;;16.17;7.82;;;;;;;;;;4960326;28;20114;-84
2021/12/21 00:08:23;;;;;;;19.17;8.50;;;;;;;;;;4943353;28;20046;-86
2021/12/21 00:19:41;;;;;;;18.50;8.55;;;;;;;;;;4952317;29;20043;-87
2021/12/21 00:22:17;;;;;;;15.40;7.40;;;;;;;;;;4983113;28;20043;-86
2021/12/21 00:24:47;;;;;;;18.55;7.45;;;;;;;;;;4955699;28;20167;-86
2021/12/21 00:27:14;;;;;;;13.75;7.40;;;;;;;;;;4957919;28;20026;-85
2021/12/21 00:29:39;;;;;;;20.98;7.15;;;;;;;;;;4944072;28;20030;-86
2021/12/21 00:32:06;;;;;;;14.45;6.35;;;;;;;;;;4956770;28;20020;-85
2021/12/21 00:34:32;;;;;;;11.45;6.10;;;;;;;;;;4939168;28;20541;-87
2021/12/21 00:36:57;;;;;;;16.38;7.18;;;;;;;;;;4938763;28;20020;-87
2021/12/21 00:39:22;;;;;;;19.23;7.32;;;;;;;;;;4944899;28;20467;-87
2021/12/21 00:41:48;;;;;;;13.48;6.03;;;;;;;;;;4938290;28;20680;-87
2021/12/21 00:44:13;;;;;;;23.75;6.85;;;;;;;;;;4946564;28;20033;-86
2021/12/21 00:46:39;;;;;;;16.60;6.55;;;;;;;;;;4939454;29;20037;-86
2021/12/21 00:49:13;;;;;;;13.45;6.88;;;;;;;;;;4942248;28;20381;-86
2021/12/21 00:51:40;;;;;;;14.82;6.97;;;;;;;;;;4942359;28;20078;-89
2021/12/21 00:54:05;;;;;;;12.23;6.55;;;;;;;;;;4964912;28;20033;-86
2021/12/21 00:56:31;;;;;;;18.63;6.35;;;;;;;;;;4939421;28;20023;-86
2021/12/21 00:58:56;;;;;;;16.60;6.43;;;;;;;;;;4936480;28;20578;-89
2021/12/21 01:01:22;;;;;;;13.65;6.50;;;;;;;;;;4961252;28;20488;-87
2021/12/21 01:03:51;;;;;;;11.90;6.38;;;;;;;;;;4944872;28;20027;-86
2021/12/21 01:07:03;;;;;;;18.95;6.95;;;;;;;;;;4966061;28;20102;-86
2021/12/21 01:09:19;;;;;;;14.07;6.18;;;;;;;;;;4950148;28;20035;-84
2021/12/21 01:11:53;;;;;;;14.23;6.30;;;;;;;;;;4956691;28;20530;-87
2021/12/21 01:14:55;;;;;;;13.60;6.05;;;;;;;;;;4967470;28;20025;-87
2021/12/21 01:17:21;;;;;;;12.48;6.15;;;;;;;;;;4966229;28;20026;-87
2021/12/21 01:19:58;;;;;;;11.07;6.13;;;;;;;;;;4946690;28;20118;-86
2021/12/21 01:22:42;;;;;;;11.63;5.85;;;;;;;;;;4960015;28;20106;-84
2021/12/21 01:25:23;;;;;;;12.38;5.60;;;;;;;;;;4947059;28;20023;-86
2021/12/21 01:36:04;;;;;;;15.15;6.25;;;;;;;;;;4959331;29;20087;-86
2021/12/21 01:41:12;;;;;;;15.13;5.97;;;;;;;;;;4958439;29;20034;-86
2021/12/21 01:43:44;;;;;;;15.98;5.97;;;;;;;;;;4959117;28;20030;-85
2021/12/21 01:51:37;;;;;;;13.23;5.30;;;;;;;;;;4955665;29;20041;-85
2021/12/21 01:54:03;;;;;;;12.20;5.85;;;;;;;;;;4950467;28;20023;-85
2021/12/21 01:56:29;;;;;;;11.68;6.35;;;;;;;;;;4956837;29;20024;-85
2021/12/21 01:58:54;;;;;;;10.63;5.68;;;;;;;;;;4958888;29;20039;-86
2021/12/21 02:01:22;;;;;;;16.33;6.03;;;;;;;;;;4941532;28;20027;-88
2021/12/21 02:03:48;;;;;;;12.27;5.53;;;;;;;;;;4958694;29;20034;-88
2021/12/21 02:06:16;;;;;;;10.55;5.20;;;;;;;;;;4941054;29;20031;-89
2021/12/21 02:08:42;;;;;;;21.73;6.75;;;;;;;;;;4941297;29;20031;-85
2021/12/21 02:11:08;;;;;;;11.48;5.68;;;;;;;;;;4953449;28;20027;-84
2021/12/21 02:13:36;;;;;;;22.35;5.53;;;;;;;;;;4941053;29;20034;-85
2021/12/21 02:16:06;;;;;;;12.02;5.90;;;;;;;;;;4941478;29;20110;-86
2021/12/21 02:18:49;;;;;;;11.00;6.00;;;;;;;;;;4939997;28;20067;-86
2021/12/21 02:21:51;;;;;;;9.15;5.75;;;;;;;;;;4954880;28;20122;-85
2021/12/21 02:28:09;;;;;;;12.77;5.45;;;;;;;;;;4904735;28;20035;-84
2021/12/21 02:31:35;;;;;;;8.25;4.75;;;;;;;;;;4945775;28;20050;-85
2021/12/21 02:34:01;;;;;;;10.05;4.35;;;;;;;;;;4880945;29;20476;-84
2021/12/21 02:36:26;;;;;;;15.38;7.43;;;;;;;;;;4889938;29;20036;-86
2021/12/21 02:38:52;;;;;;;33.80;13.10;;;;;;;;;;4941315;28;20579;-86
2021/12/21 02:41:22;;;;;;;33.63;14.05;;;;;;;;;;4946089;28;20058;-86
2021/12/21 02:43:48;;;;;;;32.85;11.55;;;;;;;;;;4935107;29;20078;-87
2021/12/21 02:46:14;;;;;;;22.00;8.88;;;;;;;;;;4926575;29;20119;-87
2021/12/21 02:49:30;;;;;;;21.65;9.30;;;;;;;;;;4933994;29;20062;-88
2021/12/21 02:52:51;;;;;;;23.90;8.95;;;;;;;;;;4972873;28;20026;-86
2021/12/21 02:55:57;;;;;;;25.85;8.85;;;;;;;;;;4958420;29;20110;-89
2021/12/21 03:02:32;;;;;;;20.80;7.30;;;;;;;;;;4941556;29;20035;-86
2021/12/21 03:05:17;;;;;;;17.40;7.95;;;;;;;;;;4939363;29;20258;-85
2021/12/21 03:10:23;;;;;;;16.75;7.90;;;;;;;;;;4949454;29;20039;-85
2021/12/21 03:15:16;;;;;;;16.75;7.72;;;;;;;;;;4975257;29;20030;-85
2021/12/21 03:17:41;;;;;;;19.70;9.55;;;;;;;;;;4968582;29;20078;-85
2021/12/21 03:20:07;;;;;;;22.77;8.38;;;;;;;;;;4942971;29;20039;-86
2021/12/21 03:22:32;;;;;;;13.48;5.65;;;;;;;;;;4942339;29;20116;-86
2021/12/21 03:24:58;;;;;;;15.52;6.90;;;;;;;;;;4956621;29;20055;-86
2021/12/21 03:27:23;;;;;;;22.02;6.50;;;;;;;;;;4952543;28;20031;-87
2021/12/21 03:29:49;;;;;;;19.65;6.90;;;;;;;;;;4955818;28;20023;-85
2021/12/21 03:32:14;;;;;;;15.57;6.57;;;;;;;;;;4949375;28;20050;-87
2021/12/21 03:34:40;;;;;;;14.68;5.82;;;;;;;;;;4939792;29;20031;-88
2021/12/21 03:37:11;;;;;;;15.75;4.85;;;;;;;;;;4961929;28;20113;-85
2021/12/21 03:39:37;;;;;;;21.55;6.05;;;;;;;;;;4945163;29;20480;-88
2021/12/21 03:42:03;;;;;;;9.70;5.28;;;;;;;;;;4963514;28;20038;-87
2021/12/21 03:44:29;;;;;;;9.63;5.85;;;;;;;;;;4950686;29;20027;-86
2021/12/21 03:46:56;;;;;;;13.80;5.80;;;;;;;;;;4961852;29;20091;-86
2021/12/21 03:52:04;;;;;;;12.93;6.30;;;;;;;;;;4962308;28;20027;-86
2021/12/21 03:54:30;;;;;;;17.63;6.10;;;;;;;;;;4961240;28;20500;-86
2021/12/21 03:56:55;;;;;;;9.95;5.43;;;;;;;;;;4961728;28;20090;-87
2021/12/21 03:59:21;;;;;;;18.73;6.97;;;;;;;;;;4961174;28;20058;-87
2021/12/21 04:01:47;;;;;;;13.05;5.72;;;;;;;;;;4959166;28;20094;-86
2021/12/21 04:04:13;;;;;;;22.02;7.35;;;;;;;;;;4941347;29;20066;-88
2021/12/21 04:06:39;;;;;;;12.25;5.78;;;;;;;;;;4959188;29;20031;-86
2021/12/21 04:09:06;;;;;;;9.88;5.68;;;;;;;;;;4941580;29;20590;-87
2021/12/21 04:11:32;;;;;;;17.10;6.55;;;;;;;;;;4940156;29;20035;-87
2021/12/21 04:13:59;;;;;;;14.48;6.05;;;;;;;;;;4958551;28;20055;-86
2021/12/21 04:16:25;;;;;;;12.43;6.18;;;;;;;;;;4955879;28;20106;-87
2021/12/21 04:18:51;;;;;;;16.52;6.07;;;;;;;;;;4938907;29;20074;-84
2021/12/21 04:21:16;;;;;;;12.75;5.50;;;;;;;;;;4937411;28;20046;-84
2021/12/21 04:23:43;;;;;;;11.43;5.25;;;;;;;;;;4937877;29;20035;-85
2021/12/21 04:26:10;;;;;;;12.85;5.85;;;;;;;;;;4967011;28;20110;-85
2021/12/21 04:28:35;;;;;;;15.15;5.25;;;;;;;;;;4977477;28;20024;-84
2021/12/21 04:31:02;;;;;;;16.88;6.10;;;;;;;;;;4970103;28;20031;-85
2021/12/21 04:33:28;;;;;;;14.27;5.45;;;;;;;;;;4963318;28;20023;-86
2021/12/21 04:35:53;;;;;;;12.75;6.05;;;;;;;;;;4968866;28;20519;-84
2021/12/21 04:38:23;;;;;;;14.25;5.18;;;;;;;;;;4946681;29;20063;-85
2021/12/21 04:40:55;;;;;;;11.27;5.47;;;;;;;;;;4961449;28;20035;-85
2021/12/21 04:43:21;;;;;;;14.45;5.63;;;;;;;;;;4959218;28;20050;-86
2021/12/21 04:45:47;;;;;;;10.02;5.70;;;;;;;;;;4941523;29;20514;-85
2021/12/21 04:48:12;;;;;;;11.15;5.57;;;;;;;;;;4958728;29;20019;-87
2021/12/21 04:50:38;;;;;;;12.50;4.95;;;;;;;;;;4962237;28;20464;-85
2021/12/21 04:53:04;;;;;;;8.52;4.97;;;;;;;;;;4957869;28;20087;-86
2021/12/21 04:55:29;;;;;;;10.60;5.18;;;;;;;;;;4964296;29;20047;-85
2021/12/21 04:57:56;;;;;;;13.32;5.28;;;;;;;;;;4961457;29;20043;-87
2021/12/21 05:00:22;;;;;;;10.32;4.65;;;;;;;;;;4961929;29;20137;-86
2021/12/21 05:02:47;;;;;;;12.05;5.20;;;;;;;;;;4961580;28;20594;-87
2021/12/21 05:05:13;;;;;;;14.10;6.30;;;;;;;;;;4945411;29;20086;-88
2021/12/21 05:07:40;;;;;;;18.90;5.95;;;;;;;;;;4944885;29;20071;-86
2021/12/21 05:10:08;;;;;;;19.77;5.53;;;;;;;;;;4960226;29;20495;-85
2021/12/21 05:12:36;;;;;;;12.93;5.50;;;;;;;;;;4943368;29;20488;-85
2021/12/21 05:15:02;;;;;;;13.73;5.32;;;;;;;;;;4960215;29;20107;-84
2021/12/21 05:17:28;;;;;;;14.77;5.07;;;;;;;;;;4961238;29;20025;-85
2021/12/21 05:19:53;;;;;;;13.93;5.40;;;;;;;;;;4945039;28;20023;-86
2021/12/21 05:22:18;;;;;;;12.35;5.88;;;;;;;;;;4971607;28;20588;-86
2021/12/21 05:24:44;;;;;;;12.05;4.80;;;;;;;;;;4948034;29;20027;-86
2021/12/21 05:27:10;;;;;;;12.82;5.20;;;;;;;;;;4944771;29;20053;-85
2021/12/21 05:29:37;;;;;;;14.38;5.32;;;;;;;;;;4963737;28;20484;-86
2021/12/21 05:32:04;;;;;;;11.38;5.05;;;;;;;;;;4949995;28;20019;-85
2021/12/21 05:34:30;;;;;;;8.70;5.40;;;;;;;;;;4943470;29;20051;-86
2021/12/21 05:36:56;;;;;;;8.32;4.97;;;;;;;;;;4944281;29;20034;-86
2021/12/21 05:39:25;;;;;;;14.70;5.57;;;;;;;;;;4961414;29;20027;-86
2021/12/21 05:41:54;;;;;;;11.90;5.15;;;;;;;;;;4961765;28;20019;-89
2021/12/21 05:44:22;;;;;;;16.10;5.07;;;;;;;;;;4959271;28;20030;-88
2021/12/21 05:46:49;;;;;;;9.57;4.25;;;;;;;;;;4960783;29;20545;-89
2021/12/21 05:49:16;;;;;;;15.05;5.13;;;;;;;;;;4924281;29;20028;-89
2021/12/21 05:51:41;;;;;;;12.20;5.13;;;;;;;;;;4956154;28;20031;-88
2021/12/21 05:54:07;;;;;;;12.00;5.78;;;;;;;;;;4962031;29;20027;-86
2021/12/21 05:56:33;;;;;;;12.32;4.90;;;;;;;;;;4963492;28;20417;-85
2021/12/21 05:59:00;;;;;;;15.75;5.60;;;;;;;;;;4979371;28;20023;-87
2021/12/21 06:01:25;;;;;;;14.02;5.85;;;;;;;;;;4976736;28;20023;-86
2021/12/21 06:03:51;;;;;;;9.90;5.10;;;;;;;;;;4963577;28;20011;-85
2021/12/21 06:06:17;;;;;;;12.55;5.63;;;;;;;;;;4963470;29;20030;-86
2021/12/21 06:08:44;;;;;;;7.95;4.85;;;;;;;;;;4959022;29;20031;-84
2021/12/21 06:11:10;;;;;;;8.75;4.50;;;;;;;;;;4945990;28;20070;-85
2021/12/21 06:25:21;;;;;;;7.43;4.75;;;;;;;;;;4955248;29;20030;-85
2021/12/21 06:27:16;;;;;;;9.63;4.60;;;;;;;;;;4948366;28;20026;-86
2021/12/21 06:29:42;;;;;;;11.50;5.55;;;;;;;;;;4973695;28;20027;-85
2021/12/21 06:32:09;;;;;;;14.02;5.05;;;;;;;;;;4947120;28;20114;-85
2021/12/21 06:34:35;;;;;;;16.15;6.18;;;;;;;;;;4964968;28;20028;-86
2021/12/21 06:37:00;;;;;;;13.75;5.65;;;;;;;;;;4998586;28;20063;-85
2021/12/21 06:39:28;;;;;;;17.30;6.65;;;;;;;;;;4958861;29;20473;-85
2021/12/21 06:41:54;;;;;;;14.13;5.25;;;;;;;;;;4977104;28;20035;-85
2021/12/21 06:44:19;;;;;;;20.23;6.18;;;;;;;;;;4940026;29;20035;-86
2021/12/21 06:47:05;;;;;;;13.80;5.82;;;;;;;;;;4979302;28;20027;-87
2021/12/21 06:52:16;;;;;;;10.27;4.95;;;;;;;;;;4973089;28;20038;-84
2021/12/21 06:54:41;;;;;;;17.73;5.30;;;;;;;;;;4971122;28;20023;-84
2021/12/21 06:57:07;;;;;;;11.18;5.03;;;;;;;;;;4970836;28;20091;-85
2021/12/21 06:59:32;;;;;;;13.02;5.65;;;;;;;;;;4957906;28;20090;-85
2021/12/21 07:01:58;;;;;;;17.02;5.32;;;;;;;;;;4957224;28;20027;-86
2021/12/21 07:04:24;;;;;;;9.55;5.30;;;;;;;;;;4969643;29;20031;-85
2021/12/21 07:06:53;;;;;;;16.05;5.38;;;;;;;;;;4953003;29;20039;-86
2021/12/21 07:09:30;;;;;;;8.80;4.75;;;;;;;;;;4985681;28;20031;-86
2021/12/21 07:12:13;;;;;;;13.40;5.40;;;;;;;;;;4988838;28;20029;-86
2021/12/21 07:18:29;;;;;;;16.17;5.88;;;;;;;;;;4965348;28;20094;-86
2021/12/21 07:20:19;;;;;;;10.70;5.90;;;;;;;;;;4953213;28;20489;-86
2021/12/21 07:22:44;;;;;;;12.48;6.07;;;;;;;;;;4952965;28;20129;-84
2021/12/21 07:25:10;;;;;;;11.18;5.00;;;;;;;;;;4977601;28;20016;-83
2021/12/21 07:27:35;;;;;;;9.82;4.88;;;;;;;;;;4992604;28;20027;-84
2021/12/21 07:30:01;;;;;;;16.10;9.75;;;;;;;;;;4970642;28;20097;-85
2021/12/21 07:32:26;;;;;;;19.83;8.60;;;;;;;;;;4969935;28;20051;-86
2021/12/21 07:34:51;;;;;;;13.57;7.30;;;;;;;;;;4971688;28;20030;-86
2021/12/21 07:37:18;;;;;;;16.30;5.95;;;;;;;;;;4975860;28;20107;-86
2021/12/21 07:39:44;;;;;;;14.63;6.13;;;;;;;;;;4975093;28;20057;-86
2021/12/21 07:42:09;;;;;;;11.20;4.97;;;;;;;;;;4971205;28;20031;-87
2021/12/21 07:44:34;;;;;;;13.80;5.57;;;;;;;;;;4958795;29;20042;-87
2021/12/21 07:47:00;;;;;;;10.20;5.90;;;;;;;;;;4973068;28;20031;-85
2021/12/21 07:49:26;;;;;;;12.05;5.40;;;;;;;;;;4934796;28;20479;-87
2021/12/21 07:51:51;;;;;;;10.80;5.38;;;;;;;;;;4950652;29;20159;-88
2021/12/21 07:54:18;;;;;;;16.45;5.00;;;;;;;;;;4958151;29;20079;-89
2021/12/21 07:56:44;;;;;;;10.90;4.88;;;;;;;;;;4956937;29;20256;-87
2021/12/21 07:59:11;;;;;;;12.90;4.97;;;;;;;;;;4959566;28;20031;-85
2021/12/21 08:01:37;;;;;;;13.13;5.45;;;;;;;;;;4945452;29;20107;-87
2021/12/21 08:04:03;;;;;;;12.52;6.15;;;;;;;;;;4950262;29;20027;-90
2021/12/21 08:06:31;;;;;;;12.63;6.07;;;;;;;;;;4960244;28;20109;-86
2021/12/21 08:08:57;;;;;;;10.23;5.78;;;;;;;;;;4950942;29;20024;-87
2021/12/21 08:14:01;;;;;;;9.32;5.30;;;;;;;;;;4959104;29;20027;-85
2021/12/21 08:16:26;;;;;;;16.05;6.53;;;;;;;;;;4958743;28;20389;-87
2021/12/21 08:18:52;;;;;;;11.75;6.05;;;;;;;;;;4959307;29;20031;-87
2021/12/21 08:21:18;;;;;;;15.35;6.20;;;;;;;;;;4960231;29;20114;-85
2021/12/21 08:23:45;;;;;;;11.80;6.32;;;;;;;;;;4967133;29;20030;-86
2021/12/21 08:26:11;;;;;;;15.25;5.80;;;;;;;;;;4954026;28;20058;-86
2021/12/21 08:28:37;;;;;;;19.95;7.40;;;;;;;;;;4988901;28;20026;-87
2021/12/21 08:31:02;;;;;;;12.07;6.47;;;;;;;;;;4978420;28;20031;-85
2021/12/21 08:33:28;;;;;;;11.32;6.50;;;;;;;;;;4971354;28;20027;-87
2021/12/21 08:35:53;;;;;;;14.15;6.60;;;;;;;;;;4965782;29;20025;-84
2021/12/21 08:38:20;;;;;;;11.65;6.53;;;;;;;;;;4967503;29;20035;-84
2021/12/21 08:40:49;;;;;;;15.45;7.45;;;;;;;;;;4963480;29;20086;-86
2021/12/21 08:45:45;;;;;;;14.05;7.85;;;;;;;;;;5003616;28;20414;-82
2021/12/21 08:48:11;;;;;;;13.27;6.65;;;;;;;;;;5007420;28;20026;-82
2021/12/21 08:50:37;;;;;;;21.83;7.15;;;;;;;;;;5006760;28;20028;-82
2021/12/21 08:53:03;;;;;;;19.15;6.75;;;;;;;;;;4998398;28;20437;-81
2021/12/21 08:55:28;;;;;;;13.82;7.28;;;;;;;;;;4995610;28;20496;-82
2021/12/21 08:57:54;;;;;;;14.32;7.75;;;;;;;;;;4987874;28;20033;-82
2021/12/21 09:00:20;;;;;;;12.73;6.35;;;;;;;;;;4989716;28;20488;-80
2021/12/21 09:02:46;;;;;;;15.25;7.10;;;;;;;;;;5015112;28;20030;-82
2021/12/21 09:05:15;;;;;;;12.98;6.20;;;;;;;;;;5011071;28;20026;-82
2021/12/21 09:07:43;;;;;;;15.10;7.38;;;;;;;;;;4997250;28;20043;-81
2021/12/21 09:10:11;;;;;;;12.90;6.55;;;;;;;;;;4992609;28;20104;-81
2021/12/21 09:12:38;;;;;;;15.60;6.85;;;;;;;;;;4997644;28;20237;-81
2021/12/21 09:15:05;;;;;;;16.48;6.05;;;;;;;;;;5008764;28;20136;-81
2021/12/21 09:17:30;;;;;;;12.88;6.47;;;;;;;;;;5020475;28;20433;-81
2021/12/21 09:19:57;;;;;;;12.07;6.63;;;;;;;;;;5003252;28;20122;-82
2021/12/21 09:22:23;;;;;;;10.35;6.90;;;;;;;;;;4994445;28;20030;-82
2021/12/21 09:24:49;;;;;;;12.60;6.88;;;;;;;;;;5007539;28;20077;-81
2021/12/21 09:27:16;;;;;;;17.38;6.80;;;;;;;;;;5000395;28;20038;-81
2021/12/21 09:29:41;;;;;;;9.23;5.97;;;;;;;;;;5001010;28;20105;-81
2021/12/21 09:32:12;;;;;;;15.57;6.20;;;;;;;;;;5000952;28;20440;-81
2021/12/21 09:34:38;;;;;;;10.57;6.63;;;;;;;;;;5001998;28;20161;-81
2021/12/21 09:37:04;;;;;;;14.73;7.28;;;;;;;;;;5001728;28;20022;-82
2021/12/21 09:39:30;;;;;;;13.38;7.03;;;;;;;;;;5001482;28;20030;-81
2021/12/21 09:41:55;;;;;;;13.80;5.88;;;;;;;;;;4984257;28;20061;-81
2021/12/21 09:44:21;;;;;;;10.43;6.78;;;;;;;;;;5016008;28;20041;-81
2021/12/21 09:46:46;;;;;;;9.93;6.60;;;;;;;;;;4983226;28;20062;-81
2021/12/21 09:49:12;;;;;;;14.85;7.70;;;;;;;;;;5000301;28;20034;-81
2021/12/21 09:51:37;;;;;;;12.45;7.00;;;;;;;;;;5000909;28;20034;-81
2021/12/21 09:54:03;;;;;;;20.80;7.63;;;;;;;;;;5008977;28;20030;-81
2021/12/21 09:56:29;;;;;;;19.00;8.02;;;;;;;;;;5002431;28;20030;-82
2021/12/21 09:58:55;;;;;;;14.45;7.07;;;;;;;;;;5007091;28;20409;-81
2021/12/21 10:01:21;;;;;;;13.10;7.00;;;;;;;;;;5001472;28;20034;-82
2021/12/21 10:03:47;;;;;;;10.77;5.95;;;;;;;;;;5000747;28;20030;-82
2021/12/21 10:06:13;;;;;;;11.27;5.90;;;;;;;;;;5000964;28;20034;-81
2021/12/21 10:08:39;;;;;;;12.55;6.40;;;;;;;;;;5000354;28;20030;-80
2021/12/21 10:11:06;;;;;;;10.25;5.97;;;;;;;;;;4999913;28;20027;-82
2021/12/21 10:13:35;;;;;;;10.60;5.80;;;;;;;;;;5003560;28;20093;-80
2021/12/21 10:16:04;;;;;;;9.32;5.63;;;;;;;;;;4990106;28;20049;-82
2021/12/21 10:18:33;;;;;;;12.20;5.18;;;;;;;;;;5010522;28;20022;-82
2021/12/21 10:21:02;;;;;;;10.30;5.07;;;;;;;;;;5012055;28;20032;-81
2021/12/21 10:23:29;;;;;;;6.72;4.25;;;;;;;;;;4998904;28;20041;-82
2021/12/21 10:26:01;;;;;;;8.93;3.92;;;;;;;;;;4994649;28;20019;-82
2021/12/21 10:28:42;;;;;;;5.72;4.10;;;;;;;;;;5010524;28;20025;-81
2021/12/21 10:31:08;;;;;;;6.05;2.83;;;;;;;;;;5002715;28;20029;-82
2021/12/21 10:33:35;;;;;;;7.88;3.65;;;;;;;;;;5002307;28;20022;-82
2021/12/21 10:36:05;;;;;;;7.32;4.35;;;;;;;;;;4999894;28;20499;-82
2021/12/21 10:38:35;;;;;;;8.93;4.28;;;;;;;;;;4982402;28;20048;-81
2021/12/21 10:41:13;;;;;;;10.48;4.60;;;;;;;;;;4999865;28;20034;-82
2021/12/21 10:43:38;;;;;;;7.88;3.58;;;;;;;;;;4981740;28;20057;-82
2021/12/21 10:46:04;;;;;;;7.53;4.13;;;;;;;;;;4982498;28;20628;-83
2021/12/21 10:48:35;;;;;;;10.73;4.35;;;;;;;;;;4999813;28;20014;-82
2021/12/21 10:51:00;;;;;;;7.80;4.15;;;;;;;;;;4987536;28;20029;-80
2021/12/21 10:53:26;;;;;;;8.80;3.90;;;;;;;;;;4994728;28;20022;-83
2021/12/21 10:56:02;;;;;;;10.55;3.60;;;;;;;;;;4990013;28;20074;-83
2021/12/21 10:58:29;;;;;;;7.95;3.25;;;;;;;;;;4979068;28;20029;-82
2021/12/21 11:00:59;;;;;;;6.10;3.55;;;;;;;;;;5001749;28;20036;-84
2021/12/21 11:03:38;;;;;;;7.38;3.53;;;;;;;;;;4982811;28;20022;-81
2021/12/21 11:06:12;;;;;;;6.15;3.63;;;;;;;;;;5000231;28;20523;-81
2021/12/21 11:08:43;;;;;;;7.55;3.80;;;;;;;;;;5000474;28;20022;-82
2021/12/21 11:11:48;;;;;;;8.30;4.40;;;;;;;;;;4993598;28;20035;-83
2021/12/21 11:14:17;;;;;;;9.02;3.78;;;;;;;;;;4996182;28;20018;-83
2021/12/21 11:16:48;;;;;;;7.78;3.40;;;;;;;;;;4980707;28;20409;-84
2021/12/21 11:19:17;;;;;;;4.03;2.65;;;;;;;;;;4998277;28;20082;-81
2021/12/21 11:21:43;;;;;;;5.75;3.00;;;;;;;;;;4998524;28;20037;-80
2021/12/21 11:24:14;;;;;;;5.03;3.03;;;;;;;;;;5008612;28;20049;-80
2021/12/21 11:26:41;;;;;;;3.53;2.35;;;;;;;;;;4989711;28;20015;-81
2021/12/21 11:29:12;;;;;;;6.28;3.20;;;;;;;;;;5007957;28;20017;-84
2021/12/21 11:31:42;;;;;;;10.10;2.85;;;;;;;;;;5015669;28;20026;-83
2021/12/21 11:34:12;;;;;;;4.03;2.88;;;;;;;;;;5008593;28;20524;-83
2021/12/21 11:39:22;;;;;;;9.40;3.63;;;;;;;;;;5009791;28;20045;-83
2021/12/21 11:41:50;;;;;;;11.43;2.67;;;;;;;;;;5006547;28;20022;-81
2021/12/21 11:44:50;;;;;;;7.97;2.55;;;;;;;;;;5001866;28;20030;-84
2021/12/21 11:47:22;;;;;;;6.00;3.08;;;;;;;;;;5001350;28;20073;-83
2021/12/21 11:49:54;;;;;;;9.10;3.50;;;;;;;;;;5012262;28;20071;-81
2021/12/21 11:52:24;;;;;;;9.23;3.08;;;;;;;;;;5005150;28;20385;-83
2021/12/21 11:55:46;;;;;;;6.55;4.03;;;;;;;;;;5010698;28;20034;-83
2021/12/21 11:58:40;;;;;;;10.85;3.55;;;;;;;;;;4937222;28;20500;-81
2021/12/21 12:01:23;;;;;;;8.20;3.53;;;;;;;;;;5004348;28;20030;-84
2021/12/21 12:04:06;;;;;;;7.35;4.05;;;;;;;;;;5002138;28;20014;-83
2021/12/21 12:06:54;;;;;;;9.95;3.58;;;;;;;;;;4989247;28;20029;-84
2021/12/21 12:09:31;;;;;;;5.75;3.22;;;;;;;;;;5007788;28;20050;-85
2021/12/21 12:12:09;;;;;;;10.02;3.90;;;;;;;;;;4983368;28;20397;-81
2021/12/21 12:14:37;;;;;;;6.35;3.35;;;;;;;;;;4990955;28;20025;-83
2021/12/21 12:17:10;;;;;;;6.53;3.30;;;;;;;;;;5007146;28;20019;-84
2021/12/21 12:19:38;;;;;;;11.55;4.05;;;;;;;;;;4992077;28;20134;-84
2021/12/21 12:22:09;;;;;;;6.45;3.83;;;;;;;;;;5010637;28;20022;-84
2021/12/21 12:24:39;;;;;;;6.57;3.45;;;;;;;;;;4983274;28;20033;-85
2021/12/21 12:27:12;;;;;;;5.22;3.15;;;;;;;;;;4991075;28;20026;-86
2021/12/21 12:30:07;;;;;;;9.60;3.45;;;;;;;;;;5003188;28;20026;-85
2021/12/21 12:32:37;;;;;;;6.82;3.20;;;;;;;;;;5008178;28;20026;-86
2021/12/21 12:35:09;;;;;;;4.68;3.08;;;;;;;;;;4998019;28;20365;-86
2021/12/21 12:37:58;;;;;;;5.78;3.53;;;;;;;;;;5009032;28;20045;-85
2021/12/21 12:40:36;;;;;;;9.27;3.25;;;;;;;;;;5007649;28;20504;-86
2021/12/21 12:43:08;;;;;;;6.97;3.40;;;;;;;;;;4993043;28;20023;-86
2021/12/21 12:45:50;;;;;;;8.27;3.50;;;;;;;;;;4995897;28;20026;-86
2021/12/21 12:48:23;;;;;;;2.95;2.28;;;;;;;;;;5004140;28;20030;-84
2021/12/21 12:50:51;;;;;;;7.05;2.95;;;;;;;;;;4991680;28;20034;-84
2021/12/21 12:53:17;;;;;;;5.25;3.10;;;;;;;;;;5012927;28;20045;-85
2021/12/21 12:55:52;;;;;;;4.82;2.95;;;;;;;;;;5005049;28;20030;-87
2021/12/21 12:58:21;;;;;;;6.95;3.88;;;;;;;;;;4983280;28;20495;-85
2021/12/21 13:01:03;;;;;;;9.23;3.10;;;;;;;;;;4996018;28;20038;-85
2021/12/21 13:03:43;;;;;;;6.47;4.00;;;;;;;;;;4976274;28;20102;-86
2021/12/21 13:06:10;;;;;;;4.68;2.97;;;;;;;;;;4996238;28;20031;-82
2021/12/21 13:08:36;;;;;;;6.13;3.40;;;;;;;;;;4992919;28;20026;-84
2021/12/21 13:11:02;;;;;;;6.30;3.25;;;;;;;;;;4998417;28;20029;-85
2021/12/21 13:13:36;;;;;;;7.63;3.70;;;;;;;;;;5004176;28;20113;-86
2021/12/21 13:16:14;;;;;;;4.78;3.20;;;;;;;;;;5002356;28;20033;-86
2021/12/21 13:18:51;;;;;;;6.93;3.50;;;;;;;;;;5002180;28;20022;-85
2021/12/21 13:21:21;;;;;;;6.30;3.55;;;;;;;;;;5002041;28;20030;-85
2021/12/21 13:23:50;;;;;;;9.93;3.58;;;;;;;;;;5005036;28;20069;-84
2021/12/21 13:26:17;;;;;;;5.47;3.13;;;;;;;;;;4980400;28;20393;-85
2021/12/21 13:28:47;;;;;;;5.72;3.78;;;;;;;;;;4982949;28;20029;-86
2021/12/21 13:31:17;;;;;;;5.82;3.00;;;;;;;;;;4999423;28;20026;-86
2021/12/21 13:33:43;;;;;;;5.93;3.10;;;;;;;;;;4977998;28;20026;-87
2021/12/21 13:36:08;;;;;;;8.75;3.85;;;;;;;;;;4995700;28;20084;-86
2021/12/21 13:38:36;;;;;;;11.63;3.42;;;;;;;;;;4992743;28;20046;-85
2021/12/21 13:41:12;;;;;;;9.80;3.40;;;;;;;;;;5000510;28;20492;-84
2021/12/21 13:43:50;;;;;;;6.50;3.47;;;;;;;;;;4978820;28;20073;-83
2021/12/21 13:46:15;;;;;;;5.88;3.83;;;;;;;;;;5007177;28;20078;-85
2021/12/21 13:48:50;;;;;;;6.97;3.58;;;;;;;;;;5006540;28;20084;-85
2021/12/21 13:51:16;;;;;;;5.88;3.42;;;;;;;;;;5007157;28;20092;-83
2021/12/21 13:53:52;;;;;;;5.32;3.05;;;;;;;;;;4982360;28;20030;-85
2021/12/21 13:56:25;;;;;;;8.20;3.38;;;;;;;;;;4981039;28;20034;-85
2021/12/21 13:58:54;;;;;;;5.75;3.05;;;;;;;;;;4991567;28;20179;-83
2021/12/21 14:01:26;;;;;;;6.55;3.20;;;;;;;;;;5000881;28;20034;-85
2021/12/21 14:04:07;;;;;;;5.97;3.15;;;;;;;;;;4983864;28;20057;-85
2021/12/21 14:06:35;;;;;;;6.28;3.55;;;;;;;;;;4992253;28;20038;-85
2021/12/21 14:09:03;;;;;;;6.65;3.15;;;;;;;;;;5000412;28;20018;-83
2021/12/21 14:11:38;;;;;;;5.95;3.38;;;;;;;;;;4996376;28;20121;-82
2021/12/21 14:14:18;;;;;;;6.25;3.28;;;;;;;;;;5005237;28;20034;-85
2021/12/21 14:16:46;;;;;;;5.13;3.22;;;;;;;;;;5003084;28;20094;-83
2021/12/21 14:19:23;;;;;;;7.70;3.67;;;;;;;;;;4998870;28;20042;-82
2021/12/21 14:21:54;;;;;;;5.13;3.28;;;;;;;;;;5006932;28;20037;-81
2021/12/21 14:24:24;;;;;;;8.57;3.45;;;;;;;;;;4999570;28;20040;-84
2021/12/21 14:26:54;;;;;;;8.43;3.72;;;;;;;;;;5001384;28;20022;-85
2021/12/21 14:29:25;;;;;;;7.63;3.17;;;;;;;;;;4984174;28;20504;-82
2021/12/21 14:32:16;;;;;;;5.38;2.83;;;;;;;;;;5001188;28;20481;-85
2021/12/21 14:34:52;;;;;;;4.88;3.05;;;;;;;;;;4981904;28;20058;-85
2021/12/21 14:37:22;;;;;;;5.85;2.65;;;;;;;;;;4995474;28;20076;-81
2021/12/21 14:39:54;;;;;;;11.07;3.78;;;;;;;;;;4995332;28;20037;-80
2021/12/21 14:42:21;;;;;;;8.10;3.53;;;;;;;;;;5008373;28;20472;-85
2021/12/21 14:44:57;;;;;;;11.30;3.22;;;;;;;;;;5000291;28;20041;-85
2021/12/21 14:47:29;;;;;;;8.43;3.60;;;;;;;;;;4977058;28;20098;-85
2021/12/21 14:50:02;;;;;;;;;;;;;;;;;;5002377;28;20614;-85
2021/12/21 14:52:39;;;;;;;7.80;3.47;;;;;;;;;;4983299;28;19913;-85
2021/12/21 14:55:07;;;;;;;6.53;2.97;;;;;;;;;;4981243;28;20461;-85
2021/12/21 14:57:36;;;;;;;4.82;3.22;;;;;;;;;;4983546;28;20186;-85
2021/12/21 15:00:08;;;;;;;8.52;3.78;;;;;;;;;;5005981;28;20089;-85
2021/12/21 15:05:02;;;;;;;6.35;3.22;;;;;;;;;;5007837;28;20045;-86
2021/12/21 15:07:28;;;;;;;6.47;3.35;;;;;;;;;;5019404;28;20109;-82
2021/12/21 15:09:55;;;;;;;8.05;3.45;;;;;;;;;;4992245;28;20058;-86
2021/12/21 15:12:21;;;;;;;6.60;3.30;;;;;;;;;;4982528;28;20110;-83
2021/12/21 15:14:48;;;;;;;5.35;3.15;;;;;;;;;;4993879;28;20103;-82
2021/12/21 15:17:13;;;;;;;7.45;3.65;;;;;;;;;;4979840;28;20102;-86
2021/12/21 15:19:39;;;;;;;7.45;3.35;;;;;;;;;;4996545;28;20038;-85
2021/12/21 15:22:05;;;;;;;6.93;3.28;;;;;;;;;;5003163;28;20034;-85
2021/12/21 15:24:30;;;;;;;7.90;3.55;;;;;;;;;;5006213;28;20065;-83
2021/12/21 15:26:56;;;;;;;9.48;4.65;;;;;;;;;;4997103;28;20030;-85
2021/12/21 15:29:21;;;;;;;6.07;3.47;;;;;;;;;;4987828;28;20397;-84
2021/12/21 15:31:47;;;;;;;6.72;3.83;;;;;;;;;;4981337;28;20098;-85
2021/12/21 15:34:13;;;;;;;6.28;3.45;;;;;;;;;;4991077;28;20022;-85
2021/12/21 15:36:38;;;;;;;5.30;3.25;;;;;;;;;;4995623;28;20574;-85
2021/12/21 15:39:05;;;;;;;5.57;3.58;;;;;;;;;;4997210;28;20030;-84
2021/12/21 15:41:31;;;;;;;7.35;3.53;;;;;;;;;;4981579;28;20027;-84
2021/12/21 15:43:58;;;;;;;11.88;4.07;;;;;;;;;;4998705;28;20030;-81
2021/12/21 15:46:24;;;;;;;11.48;4.30;;;;;;;;;;4977996;28;20424;-84
2021/12/21 15:48:49;;;;;;;8.10;3.78;;;;;;;;;;4993790;28;20074;-85
2021/12/21 15:51:16;;;;;;;5.47;3.47;;;;;;;;;;4998827;28;20022;-83
2021/12/21 15:53:42;;;;;;;6.75;3.63;;;;;;;;;;5002661;28;20049;-85
2021/12/21 15:56:10;;;;;;;6.93;3.90;;;;;;;;;;4975743;28;20491;-81
2021/12/21 15:58:35;;;;;;;9.25;3.97;;;;;;;;;;4997865;28;20601;-85